Conotton, Ohio
Current Conditions -  °F | °C
As of 2:53 AM on Friday 28 Nov 2014 (Local Time) from KPHD Reporting Station
Overcast Overcast  
Wind Chill: 22°   Ceiling: 4900
Heat Index: 29°   Visibility: 10mi
Dew Point: 21°   Wind: 7mph
Humidity: 72%   Direction: 300°WNW
Pressure: 30.3"   Gusts: NA
Location:  40.4357°N, 81.1746°W
Report Text: KPHD 280753Z AUTO 30006KT 10SM FEW036 SCT043 OVC049 M02/M06 A3030 RMK AO2 SNB07E20 SLP269 P0000 T10171061
Loading
Personal Weather Stations






























Interactive Weather Map New forecast layout! Learn more

10-Day Weather Forecast

Advertisements
Track Severe Weather on mobile